Fairhaven, Washington
Current Conditions -  °F | °C
As of 5:53 AM on Friday 24 Oct 2014 (Local Time) from KBLI Reporting Station
Overcast Overcast  
Wind Chill: 50°   Ceiling: 9500
Heat Index: 50°   Visibility: 10mi
Dew Point: 43°   Wind: 7mph
Humidity: 77%   Direction: 130°SE
Pressure: 30.02"   Gusts: NA
Location:  48.7531°N, 122.502°W
Report Text: KBLI 241253Z AUTO 13006KT 10SM OVC095 10/06 A3002 RMK AO2 SLP172 T01000061
Loading
Personal Weather Stations






























Interactive Weather Map New forecast layout! Learn more

10-Day Weather Forecast

Advertisements
Track Severe Weather on mobile